Time;durP1;ratioP1;P1;durP2;ratioP2;P2;SDS_P1;SDS_P2;PMS_P1;PMS_P2;Temp;Humidity;BMP_temperature;BMP_pressure;BME280_temperature;BME280_humidity;BME280_pressure;Samples;Min_cycle;Max_cycle;Signal;HPM_P1;HPM_P2
2022/07/09 00:00:29;;;;;;;;;;;;;;;;;;5024839;28;19925;-76
2022/07/09 00:02:55;;;;;;;;;;;;;;;;;;5032123;28;19925;-76
2022/07/09 00:05:22;;;;;;;;;;;;;;;;;;5031844;28;19987;-76
2022/07/09 00:07:48;;;;;;;;;;;;;;;;;;5031464;28;19997;-76
2022/07/09 00:10:14;;;;;;;;;;;;;;;;;;5032093;28;19925;-76
2022/07/09 00:12:42;;;;;;;;;;;;;;;;;;5031588;28;20295;-76
2022/07/09 00:15:09;;;;;;;;;;;;;;;;;;5031764;28;19964;-76
2022/07/09 00:17:35;;;;;;;;;;;;;;;;;;5031108;28;19925;-76
2022/07/09 00:20:04;;;;;;;;;;;;;;;;;;5031712;28;20394;-76
2022/07/09 00:22:31;;;;;;;;;;;;;;;;;;5031641;28;19925;-77
2022/07/09 00:24:58;;;;;;;;;;;;;;;;;;5031608;28;19929;-76
2022/07/09 00:27:24;;;;;;;;;;;;;;;;;;5033368;28;19971;-76
2022/07/09 00:29:52;;;;;;;;;;;;;;;;;;5035117;28;20012;-76
2022/07/09 00:32:18;;;;;;;;;;;;;;;;;;5035228;28;19935;-76
2022/07/09 00:34:45;;;;;;;;;;;;;;;;;;5035330;28;19925;-76
2022/07/09 00:37:11;;;;;;;;;;;;;;;;;;5034866;28;20388;-76
2022/07/09 00:39:37;;;;;;;;;;;;;;;;;;5035219;28;20019;-76
2022/07/09 00:42:05;;;;;;;;;;;;;;;;;;5035664;28;20020;-76
2022/07/09 00:44:31;;;;;;;;;;;;;;;;;;5035263;28;19925;-76
2022/07/09 00:46:59;;;;;;;;;;;;;;;;;;5034532;28;20002;-76
2022/07/09 00:49:25;;;;;;;;;;;;;;;;;;5035037;28;19925;-76
2022/07/09 00:51:52;;;;;;;;;;;;;;;;;;5035090;28;19932;-76
2022/07/09 00:54:19;;;;;;;;;;;;;;;;;;5035212;28;20016;-76
2022/07/09 00:56:45;;;;;;;;;;;;;;;;;;5034843;28;19932;-76
2022/07/09 00:59:13;;;;;;;;;;;;;;;;;;5032226;28;19996;-76
2022/07/09 01:01:39;;;;;;;;;;;;;;;;;;5015089;28;19979;-76
2022/07/09 01:04:07;;;;;;;;;;;;;;;;;;5014882;28;20483;-76
2022/07/09 01:06:34;;;;;;;;;;;;;;;;;;5014461;28;19925;-76
2022/07/09 01:09:01;;;;;;;;;;;;;;;;;;5014802;28;20403;-76
2022/07/09 01:11:27;;;;;;;;;;;;;;;;;;5014762;28;20024;-76
2022/07/09 01:13:54;;;;;;;;;;;;;;;;;;5014541;28;20427;-76
2022/07/09 01:16:22;;;;;;;;;;;;;;;;;;5014616;28;19926;-76
2022/07/09 01:18:48;;;;;;;;;;;;;;;;;;5014885;28;20001;-76
2022/07/09 01:21:16;;;;;;;;;;;;;;;;;;5014646;28;20016;-77
2022/07/09 01:23:43;;;;;;;;;;;;;;;;;;5014627;28;19925;-76
2022/07/09 01:26:09;;;;;;;;;;;;;;;;;;5014291;28;19925;-77
2022/07/09 01:28:36;;;;;;;;;;;;;;;;;;5014155;28;19929;-76
2022/07/09 01:31:02;;;;;;;;;;;;;;;;;;5014569;28;19925;-76
2022/07/09 01:33:29;;;;;;;;;;;;;;;;;;5014383;28;20571;-76
2022/07/09 01:35:55;;;;;;;;;;;;;;;;;;5014215;28;20364;-76
2022/07/09 01:38:23;;;;;;;;;;;;;;;;;;5013585;28;20037;-76
2022/07/09 01:40:50;;;;;;;;;;;;;;;;;;5014333;28;19925;-76
2022/07/09 01:43:16;;;;;;;;;;;;;;;;;;5014259;28;19929;-76
2022/07/09 01:45:42;;;;;;;;;;;;;;;;;;5014138;28;20384;-76
2022/07/09 01:48:09;;;;;;;;;;;;;;;;;;5013574;28;20004;-76
2022/07/09 01:50:35;;;;;;;;;;;;;;;;;;5013954;28;19925;-76
2022/07/09 01:53:02;;;;;;;;;;;;;;;;;;5013860;28;19925;-76
2022/07/09 01:55:30;;;;;;;;;;;;;;;;;;5013838;28;19932;-76
2022/07/09 01:57:56;;;;;;;;;;;;;;;;;;5013188;28;20349;-76
2022/07/09 02:00:23;;;;;;;;;;;;;;;;;;5025695;28;20352;-76
2022/07/09 02:02:49;;;;;;;;;;;;;;;;;;5033646;28;19962;-76
2022/07/09 02:05:16;;;;;;;;;;;;;;;;;;5033715;28;19931;-77
2022/07/09 02:07:43;;;;;;;;;;;;;;;;;;5033226;28;19925;-76
2022/07/09 02:10:10;;;;;;;;;;;;;;;;;;5033329;28;20402;-76
2022/07/09 02:12:37;;;;;;;;;;;;;;;;;;5033744;28;19925;-76
2022/07/09 02:15:04;;;;;;;;;;;;;;;;;;5033576;28;19932;-76
2022/07/09 02:17:32;;;;;;;;;;;;;;;;;;5033097;28;19932;-76
2022/07/09 02:19:58;;;;;;;;;;;;;;;;;;5033224;28;19928;-76
2022/07/09 02:22:25;;;;;;;;;;;;;;;;;;5033220;28;19925;-76
2022/07/09 02:24:51;;;;;;;;;;;;;;;;;;5032999;28;20028;-76
2022/07/09 02:27:18;;;;;;;;;;;;;;;;;;5032882;28;19929;-76
2022/07/09 02:29:45;;;;;;;;;;;;;;;;;;5033074;28;20024;-76
2022/07/09 02:32:12;;;;;;;;;;;;;;;;;;5033127;28;20020;-76
2022/07/09 02:34:39;;;;;;;;;;;;;;;;;;5032906;28;19931;-77
2022/07/09 02:37:05;;;;;;;;;;;;;;;;;;5032860;28;20008;-76
2022/07/09 02:39:32;;;;;;;;;;;;;;;;;;5032901;28;20019;-76
2022/07/09 02:41:58;;;;;;;;;;;;;;;;;;5032958;28;19935;-76
2022/07/09 02:44:25;;;;;;;;;;;;;;;;;;5032872;28;20359;-75
2022/07/09 02:46:53;;;;;;;;;;;;;;;;;;5032563;28;19931;-75
2022/07/09 02:49:21;;;;;;;;;;;;;;;;;;5032313;28;19925;-76
2022/07/09 02:51:47;;;;;;;;;;;;;;;;;;5032042;28;19925;-76
2022/07/09 02:54:14;;;;;;;;;;;;;;;;;;5032876;28;19947;-76
2022/07/09 02:56:40;;;;;;;;;;;;;;;;;;5032265;28;20008;-76
2022/07/09 02:59:06;;;;;;;;;;;;;;;;;;5030729;28;20008;-76
2022/07/09 03:01:33;;;;;;;;;;;;;;;;;;5012579;28;20307;-76
2022/07/09 03:04:01;;;;;;;;;;;;;;;;;;5012750;28;19932;-77
2022/07/09 03:06:28;;;;;;;;;;;;;;;;;;5012261;28;19926;-76
2022/07/09 03:08:54;;;;;;;;;;;;;;;;;;5012769;28;19926;-76
2022/07/09 03:11:21;;;;;;;;;;;;;;;;;;5012585;28;20012;-76
2022/07/09 03:13:47;;;;;;;;;;;;;;;;;;5012814;28;20003;-76
2022/07/09 03:16:13;;;;;;;;;;;;;;;;;;5012310;28;19980;-76
2022/07/09 03:18:40;;;;;;;;;;;;;;;;;;5012619;28;20348;-76
2022/07/09 03:21:11;;;;;;;;;;;;;;;;;;5012665;28;19926;-76
2022/07/09 03:23:38;;;;;;;;;;;;;;;;;;5012850;28;19932;-76
2022/07/09 03:26:04;;;;;;;;;;;;;;;;;;5012561;28;20008;-76
2022/07/09 03:28:31;;;;;;;;;;;;;;;;;;5012357;28;20344;-77
2022/07/09 03:30:57;;;;;;;;;;;;;;;;;;5012347;28;19931;-76
2022/07/09 03:33:24;;;;;;;;;;;;;;;;;;5012333;28;19925;-76
2022/07/09 03:35:50;;;;;;;;;;;;;;;;;;5012175;28;20295;-76
2022/07/09 03:38:18;;;;;;;;;;;;;;;;;;5012199;28;20316;-76
2022/07/09 03:40:44;;;;;;;;;;;;;;;;;;5012196;28;19932;-76
2022/07/09 03:43:11;;;;;;;;;;;;;;;;;;5012159;28;19925;-76
2022/07/09 03:45:37;;;;;;;;;;;;;;;;;;5012146;28;19975;-76
2022/07/09 03:48:04;;;;;;;;;;;;;;;;;;5011917;28;19937;-76
2022/07/09 03:50:31;;;;;;;;;;;;;;;;;;5012022;28;20376;-76
2022/07/09 03:52:57;;;;;;;;;;;;;;;;;;5013066;28;20008;-76
2022/07/09 03:55:25;;;;;;;;;;;;;;;;;;5012831;28;20083;-76
2022/07/09 03:57:51;;;;;;;;;;;;;;;;;;5011964;28;20300;-77
2022/07/09 04:00:18;;;;;;;;;;;;;;;;;;5023282;28;20012;-76
2022/07/09 04:02:45;;;;;;;;;;;;;;;;;;5034706;28;19935;-76
2022/07/09 04:05:11;;;;;;;;;;;;;;;;;;5035837;28;19932;-76
2022/07/09 04:07:39;;;;;;;;;;;;;;;;;;5035840;28;19925;-76
2022/07/09 04:10:06;;;;;;;;;;;;;;;;;;5035565;28;19970;-76
2022/07/09 04:12:34;;;;;;;;;;;;;;;;;;5035771;28;19925;-76
2022/07/09 04:15:01;;;;;;;;;;;;;;;;;;5035330;28;20454;-76
2022/07/09 04:17:28;;;;;;;;;;;;;;;;;;5035812;28;20372;-77
2022/07/09 04:19:54;;;;;;;;;;;;;;;;;;5035730;28;20044;-76
2022/07/09 04:22:20;;;;;;;;;;;;;;;;;;5035740;28;19929;-76
2022/07/09 04:24:47;;;;;;;;;;;;;;;;;;5035503;28;19932;-76
2022/07/09 04:27:13;;;;;;;;;;;;;;;;;;5035256;28;19968;-76
2022/07/09 04:29:40;;;;;;;;;;;;;;;;;;5035219;28;20314;-76
2022/07/09 04:32:08;;;;;;;;;;;;;;;;;;5035174;28;20400;-76
2022/07/09 04:34:34;;;;;;;;;;;;;;;;;;5035287;28;20427;-76
2022/07/09 04:37:01;;;;;;;;;;;;;;;;;;5029171;28;19926;-76
2022/07/09 04:39:28;;;;;;;;;;;;;;;;;;5015382;28;19998;-76
2022/07/09 04:41:54;;;;;;;;;;;;;;;;;;5015302;28;20451;-76
2022/07/09 04:44:21;;;;;;;;;;;;;;;;;;5015340;28;19930;-77
2022/07/09 04:46:47;;;;;;;;;;;;;;;;;;5015002;28;20016;-76
2022/07/09 04:49:15;;;;;;;;;;;;;;;;;;5015473;28;19925;-76
2022/07/09 04:51:41;;;;;;;;;;;;;;;;;;5015019;28;20012;-76
2022/07/09 04:54:08;;;;;;;;;;;;;;;;;;5015278;28;19925;-77
2022/07/09 04:56:34;;;;;;;;;;;;;;;;;;5014701;28;20392;-77
2022/07/09 04:59:02;;;;;;;;;;;;;;;;;;5015655;28;19926;-76
2022/07/09 05:01:29;;;;;;;;;;;;;;;;;;5052125;22;19925;-76
2022/07/09 05:03:55;;;;;;;;;;;;;;;;;;5015230;28;19926;-77
2022/07/09 05:06:23;;;;;;;;;;;;;;;;;;5015033;28;19926;-76
2022/07/09 05:08:50;;;;;;;;;;;;;;;;;;5015326;28;19929;-76
2022/07/09 05:11:16;;;;;;;;;;;;;;;;;;5014909;28;20028;-76
2022/07/09 05:13:43;;;;;;;;;;;;;;;;;;5013831;28;20402;-77
2022/07/09 05:16:09;;;;;;;;;;;;;;;;;;5014447;28;20415;-77
2022/07/09 05:18:36;;;;;;;;;;;;;;;;;;5014752;28;20337;-77
2022/07/09 05:21:03;;;;;;;;;;;;;;;;;;5021963;28;20015;-76
2022/07/09 05:23:30;;;;;;;;;;;;;;;;;;5045326;28;19960;-76
2022/07/09 05:25:57;;;;;;;;;;;;;;;;;;5041577;28;20024;-76
2022/07/09 05:28:23;;;;;;;;;;;;;;;;;;5034847;28;19971;-77
2022/07/09 05:30:50;;;;;;;;;;;;;;;;;;5036529;28;19983;-78
2022/07/09 05:33:17;;;;;;;;;;;;;;;;;;5036981;28;19979;-77
2022/07/09 05:35:43;;;;;;;;;;;;;;;;;;5035387;28;20299;-76
2022/07/09 05:38:10;;;;;;;;;;;;;;;;;;5033930;28;19979;-76
2022/07/09 05:40:38;;;;;;;;;;;;;;;;;;5034030;28;20019;-77
2022/07/09 05:43:04;;;;;;;;;;;;;;;;;;5034207;28;19925;-76
2022/07/09 05:45:30;;;;;;;;;;;;;;;;;;5033825;28;20012;-76
2022/07/09 05:47:57;;;;;;;;;;;;;;;;;;5033740;28;19925;-77
2022/07/09 05:50:23;;;;;;;;;;;;;;;;;;5033697;28;19929;-76
2022/07/09 05:52:50;;;;;;;;;;;;;;;;;;5033999;28;19935;-75
2022/07/09 05:55:16;;;;;;;;;;;;;;;;;;5033590;28;20094;-76
2022/07/09 05:57:44;;;;;;;;;;;;;;;;;;5034390;28;19925;-76
2022/07/09 06:00:11;;;;;;;;;;;;;;;;;;5045133;28;19925;-76
2022/07/09 06:02:37;;;;;;;;;;;;;;;;;;5053851;28;20020;-75
2022/07/09 06:05:04;;;;;;;;;;;;;;;;;;5038629;28;19981;-75
2022/07/09 06:07:30;;;;;;;;;;;;;;;;;;5033097;28;19994;-76
2022/07/09 06:09:57;;;;;;;;;;;;;;;;;;5033016;28;19976;-76
2022/07/09 06:12:23;;;;;;;;;;;;;;;;;;5033464;28;20011;-77
2022/07/09 06:14:51;;;;;;;;;;;;;;;;;;5033560;28;19929;-76
2022/07/09 06:17:17;;;;;;;;;;;;;;;;;;5033193;28;19932;-75
2022/07/09 06:19:44;;;;;;;;;;;;;;;;;;5039492;28;19926;-76
2022/07/09 06:22:10;;;;;;;;;;;;;;;;;;5042236;28;20366;-76
2022/07/09 06:24:37;;;;;;;;;;;;;;;;;;5043716;28;19931;-77
2022/07/09 06:27:03;;;;;;;;;;;;;;;;;;5041854;28;19964;-76
2022/07/09 06:29:30;;;;;;;;;;;;;;;;;;5041958;28;19932;-76
2022/07/09 06:32:00;;;;;;;;;;;;;;;;;;5043630;28;19925;-77
2022/07/09 06:34:27;;;;;;;;;;;;;;;;;;5044593;28;19972;-79
2022/07/09 06:36:53;;;;;;;;;;;;;;;;;;5045045;28;20718;-77
2022/07/09 06:42:04;;;;;;;;;;;;;;;;;;5042169;28;20395;-76
2022/07/09 06:44:31;;;;;;;;;;;;;;;;;;5041792;28;19925;-76
2022/07/09 06:46:59;;;;;;;;;;;;;;;;;;5043078;28;19924;-77
2022/07/09 06:49:25;;;;;;;;;;;;;;;;;;5042098;28;20007;-77
2022/07/09 06:51:52;;;;;;;;;;;;;;;;;;5041430;28;20015;-77
2022/07/09 06:54:18;;;;;;;;;;;;;;;;;;5043426;28;19932;-77
2022/07/09 06:56:44;;;;;;;;;;;;;;;;;;5041820;28;20011;-77
2022/07/09 06:59:11;;;;;;;;;;;;;;;;;;5044131;28;19968;-75
2022/07/09 07:01:38;;;;;;;;;;;;;;;;;;5040823;28;20035;-76
2022/07/09 07:04:06;;;;;;;;;;;;;;;;;;5043067;28;20286;-77
2022/07/09 07:06:33;;;;;;;;;;;;;;;;;;5042448;28;20015;-76
2022/07/09 07:08:59;;;;;;;;;;;;;;;;;;5043018;28;19925;-78
2022/07/09 07:11:26;;;;;;;;;;;;;;;;;;5043901;28;19924;-78
2022/07/09 07:13:52;;;;;;;;;;;;;;;;;;5048510;28;19929;-78
2022/07/09 07:16:19;;;;;;;;;;;;;;;;;;5055781;28;19999;-76
2022/07/09 07:18:46;;;;;;;;;;;;;;;;;;5046459;28;19972;-76
2022/07/09 07:21:14;;;;;;;;;;;;;;;;;;5041543;28;20356;-76
2022/07/09 07:23:40;;;;;;;;;;;;;;;;;;5043900;28;19929;-78
2022/07/09 07:26:07;;;;;;;;;;;;;;;;;;5041443;28;19979;-76
2022/07/09 07:28:34;;;;;;;;;;;;;;;;;;5047866;28;19924;-77
2022/07/09 07:31:00;;;;;;;;;;;;;;;;;;5045808;28;19928;-78
2022/07/09 07:33:27;;;;;;;;;;;;;;;;;;5042021;28;19975;-76
2022/07/09 07:35:53;;;;;;;;;;;;;;;;;;5045226;28;20370;-77
2022/07/09 07:38:22;;;;;;;;;;;;;;;;;;5061068;28;19960;-78
2022/07/09 07:40:48;;;;;;;;;;;;;;;;;;5041514;28;20608;-76
2022/07/09 07:43:15;;;;;;;;;;;;;;;;;;5042831;28;20443;-77
2022/07/09 07:45:41;;;;;;;;;;;;;;;;;;5038932;28;19932;-77
2022/07/09 07:48:08;;;;;;;;;;;;;;;;;;5038666;28;20024;-78
2022/07/09 07:50:38;;;;;;;;;;;;;;;;;;5038828;28;19925;-77
2022/07/09 07:53:04;;;;;;;;;;;;;;;;;;5038632;28;20020;-76
2022/07/09 07:55:32;;;;;;;;;;;;;;;;;;5039143;28;20023;-77
2022/07/09 07:57:59;;;;;;;;;;;;;;;;;;5038769;28;19975;-77
2022/07/09 08:00:25;;;;;;;;;;;;;;;;;;5038656;28;19948;-76
2022/07/09 08:02:52;;;;;;;;;;;;;;;;;;5039255;28;19925;-77
2022/07/09 08:05:18;;;;;;;;;;;;;;;;;;5038847;28;20448;-77
2022/07/09 08:07:45;;;;;;;;;;;;;;;;;;5038702;28;20021;-76
2022/07/09 08:10:11;;;;;;;;;;;;;;;;;;5039135;28;20112;-76
2022/07/09 08:12:39;;;;;;;;;;;;;;;;;;5038477;28;19995;-76
2022/07/09 08:15:06;;;;;;;;;;;;;;;;;;5038962;28;19925;-77
2022/07/09 08:17:32;;;;;;;;;;;;;;;;;;5038188;28;20356;-77
2022/07/09 08:19:59;;;;;;;;;;;;;;;;;;5038270;28;20392;-77
2022/07/09 08:22:26;;;;;;;;;;;;;;;;;;5038406;28;19931;-77
2022/07/09 08:24:52;;;;;;;;;;;;;;;;;;5038628;28;20013;-78
2022/07/09 08:27:18;;;;;;;;;;;;;;;;;;5038122;28;20011;-76
2022/07/09 08:29:48;;;;;;;;;;;;;;;;;;5038405;28;20030;-76
2022/07/09 08:32:15;;;;;;;;;;;;;;;;;;5038237;28;20269;-77
2022/07/09 08:34:41;;;;;;;;;;;;;;;;;;5038456;28;19929;-76
2022/07/09 08:37:08;;;;;;;;;;;;;;;;;;5038239;28;19969;-77
2022/07/09 08:39:34;;;;;;;;;;;;;;;;;;5038020;28;20011;-78
2022/07/09 08:42:01;;;;;;;;;;;;;;;;;;5038005;28;19925;-78
2022/07/09 08:44:28;;;;;;;;;;;;;;;;;;5038524;28;20015;-78
2022/07/09 08:46:58;;;;;;;;;;;;;;;;;;5037800;28;19925;-77
2022/07/09 08:49:25;;;;;;;;;;;;;;;;;;5035611;28;19972;-77
2022/07/09 08:51:53;;;;;;;;;;;;;;;;;;5035274;28;19925;-77
2022/07/09 08:54:20;;;;;;;;;;;;;;;;;;5035097;28;20013;-77
2022/07/09 08:56:47;;;;;;;;;;;;;;;;;;5034927;28;19972;-77
2022/07/09 08:59:13;;;;;;;;;;;;;;;;;;5037339;28;19925;-77
2022/07/09 09:01:39;;;;;;;;;;;;;;;;;;5054652;28;19925;-77
2022/07/09 09:04:08;;;;;;;;;;;;;;;;;;5054711;28;19925;-77
2022/07/09 09:06:37;;;;;;;;;;;;;;;;;;5054370;28;19975;-77
2022/07/09 09:09:03;;;;;;;;;;;;;;;;;;5054824;28;19924;-78
2022/07/09 09:11:31;;;;;;;;;;;;;;;;;;5054650;28;19931;-77
2022/07/09 09:13:57;;;;;;;;;;;;;;;;;;5054619;28;19947;-77
2022/07/09 09:16:24;;;;;;;;;;;;;;;;;;5054318;28;19925;-78
2022/07/09 09:18:51;;;;;;;;;;;;;;;;;;5054386;28;20020;-77
2022/07/09 09:21:20;;;;;;;;;;;;;;;;;;5054249;28;19975;-77
2022/07/09 09:23:47;;;;;;;;;;;;;;;;;;5054423;28;20028;-77
2022/07/09 09:26:14;;;;;;;;;;;;;;;;;;5054264;28;20405;-77
2022/07/09 09:28:48;;;;;;;;;;;;;;;;;;5054221;28;19925;-76
2022/07/09 09:31:21;;;;;;;;;;;;;;;;;;5053816;28;20394;-77
2022/07/09 09:33:47;;;;;;;;;;;;;;;;;;5053989;28;20016;-77
2022/07/09 09:36:27;;;;;;;;;;;;;;;;;;5053882;28;20016;-76
2022/07/09 09:38:53;;;;;;;;;;;;;;;;;;5054167;28;19925;-78
2022/07/09 09:41:22;;;;;;;;;;;;;;;;;;5053975;28;20011;-77
2022/07/09 09:43:48;;;;;;;;;;;;;;;;;;5054069;28;19972;-77
2022/07/09 09:46:15;;;;;;;;;;;;;;;;;;5053489;28;20019;-77
2022/07/09 09:48:42;;;;;;;;;;;;;;;;;;5053972;28;19929;-77
2022/07/09 09:51:10;;;;;;;;;;;;;;;;;;5053596;28;19925;-78
2022/07/09 09:53:38;;;;;;;;;;;;;;;;;;5053759;28;20011;-78
2022/07/09 09:56:05;;;;;;;;;;;;;;;;;;5053488;28;19925;-78
2022/07/09 09:58:32;;;;;;;;;;;;;;;;;;5053940;28;19928;-77
2022/07/09 10:00:58;;;;;;;;;;;;;;;;;;5035701;28;20396;-77
2022/07/09 10:03:26;;;;;;;;;;;;;;;;;;5033717;28;19947;-77
2022/07/09 10:05:52;;;;;;;;;;;;;;;;;;5033137;28;20344;-78
2022/07/09 10:08:19;;;;;;;;;;;;;;;;;;5033499;28;20001;-77
2022/07/09 10:10:52;;;;;;;;;;;;;;;;;;5033344;28;19931;-77
2022/07/09 10:13:20;;;;;;;;;;;;;;;;;;5033470;28;19931;-76
2022/07/09 10:15:49;;;;;;;;;;;;;;;;;;5033698;28;19925;-76
2022/07/09 10:18:17;;;;;;;;;;;;;;;;;;5033480;28;20422;-76
2022/07/09 10:20:44;;;;;;;;;;;;;;;;;;5033894;28;20384;-76
2022/07/09 10:23:20;;;;;;;;;;;;;;;;;;5033921;28;19926;-76
2022/07/09 10:25:47;;;;;;;;;;;;;;;;;;5033142;28;19980;-76
2022/07/09 10:28:18;;;;;;;;;;;;;;;;;;5033227;28;20281;-78
2022/07/09 10:30:44;;;;;;;;;;;;;;;;;;5033214;28;20017;-77
2022/07/09 10:33:11;;;;;;;;;;;;;;;;;;5033436;28;19925;-76
2022/07/09 10:35:41;;;;;;;;;;;;;;;;;;5033594;28;20016;-77
2022/07/09 10:38:08;;;;;;;;;;;;;;;;;;5033498;28;20277;-76
2022/07/09 10:40:38;;;;;;;;;;;;;;;;;;5033672;28;19931;-76
2022/07/09 10:43:05;;;;;;;;;;;;;;;;;;5033528;28;19925;-76
2022/07/09 10:45:42;;;;;;;;;;;;;;;;;;5032848;28;19925;-76
2022/07/09 10:48:10;;;;;;;;;;;;;;;;;;5033258;28;19932;-76
2022/07/09 10:50:38;;;;;;;;;;;;;;;;;;5032797;28;20303;-76
2022/07/09 10:53:04;;;;;;;;;;;;;;;;;;5032485;28;19925;-77
2022/07/09 10:55:31;;;;;;;;;;;;;;;;;;5032595;28;20340;-76
2022/07/09 10:57:58;;;;;;;;;;;;;;;;;;5032712;28;19932;-76
2022/07/09 11:00:25;;;;;;;;;;;;;;;;;;5059510;22;19932;-71
2022/07/09 11:02:57;;;;;;;;;;;;;;;;;;5051847;28;19929;-69
2022/07/09 11:05:24;;;;;;;;;;;;;;;;;;5052479;28;19971;-70
2022/07/09 11:08:04;;;;;;;;;;;;;;;;;;5052482;28;19925;-69
2022/07/09 11:10:31;;;;;;;;;;;;;;;;;;5052241;28;20011;-68
2022/07/09 11:12:59;;;;;;;;;;;;;;;;;;5052612;28;19931;-68
2022/07/09 11:15:27;;;;;;;;;;;;;;;;;;5053044;28;19929;-69
2022/07/09 11:18:02;;;;;;;;;;;;;;;;;;5052589;28;19974;-68
2022/07/09 11:20:29;;;;;;;;;;;;;;;;;;5052854;28;19924;-68
2022/07/09 11:22:57;;;;;;;;;;;;;;;;;;5053062;28;19931;-68
2022/07/09 11:25:25;;;;;;;;;;;;;;;;;;5052631;28;19931;-69
2022/07/09 11:27:52;;;;;;;;;;;;;;;;;;5052555;28;19935;-69
2022/07/09 11:30:18;;;;;;;;;;;;;;;;;;5052435;28;20431;-67
2022/07/09 11:32:45;;;;;;;;;;;;;;;;;;5052042;28;19924;-67
2022/07/09 11:35:23;;;;;;;;;;;;;;;;;;5052373;28;19936;-69
2022/07/09 11:37:50;;;;;;;;;;;;;;;;;;5052401;28;19983;-69
2022/07/09 11:40:17;;;;;;;;;;;;;;;;;;5052463;28;19986;-68
2022/07/09 11:42:43;;;;;;;;;;;;;;;;;;5052537;28;20354;-71
2022/07/09 11:45:11;;;;;;;;;;;;;;;;;;5052685;28;19924;-68
2022/07/09 11:47:39;;;;;;;;;;;;;;;;;;5051853;28;19931;-69
2022/07/09 11:50:06;;;;;;;;;;;;;;;;;;5051797;28;19979;-68
2022/07/09 11:52:34;;;;;;;;;;;;;;;;;;5052196;28;19928;-67
2022/07/09 11:55:01;;;;;;;;;;;;;;;;;;5051804;28;19932;-67
2022/07/09 11:57:28;;;;;;;;;;;;;;;;;;5051657;28;20109;-67
2022/07/09 11:59:55;;;;;;;;;;;;;;;;;;5043839;28;19964;-67
2022/07/09 12:02:25;;;;;;;;;;;;;;;;;;5032376;28;20357;-67
2022/07/09 12:04:52;;;;;;;;;;;;;;;;;;5031908;28;19937;-67
2022/07/09 12:07:18;;;;;;;;;;;;;;;;;;5031800;28;19925;-69
2022/07/09 12:09:46;;;;;;;;;;;;;;;;;;5031759;28;19925;-67
2022/07/09 12:12:13;;;;;;;;;;;;;;;;;;5031820;28;19973;-68
2022/07/09 12:14:40;;;;;;;;;;;;;;;;;;5032086;28;19925;-70
2022/07/09 12:17:06;;;;;;;;;;;;;;;;;;5031793;28;19971;-67
2022/07/09 12:19:33;;;;;;;;;;;;;;;;;;5031729;28;19925;-70
2022/07/09 12:21:59;;;;;;;;;;;;;;;;;;5031718;28;19925;-69
2022/07/09 12:24:26;;;;;;;;;;;;;;;;;;5035638;28;20012;-68
2022/07/09 12:26:54;;;;;;;;;;;;;;;;;;5035171;28;19932;-67
2022/07/09 12:29:21;;;;;;;;;;;;;;;;;;5035483;28;19925;-68
2022/07/09 12:31:47;;;;;;;;;;;;;;;;;;5035435;28;19929;-68
2022/07/09 12:34:14;;;;;;;;;;;;;;;;;;5035458;28;19933;-67
2022/07/09 12:36:41;;;;;;;;;;;;;;;;;;5035237;28;19925;-68
2022/07/09 12:39:07;;;;;;;;;;;;;;;;;;5035481;28;19925;-68
2022/07/09 12:41:34;;;;;;;;;;;;;;;;;;5034940;28;19929;-69
2022/07/09 12:44:02;;;;;;;;;;;;;;;;;;5035710;28;20279;-69
2022/07/09 12:46:28;;;;;;;;;;;;;;;;;;5035884;28;19987;-68
2022/07/09 12:48:55;;;;;;;;;;;;;;;;;;5035398;28;19925;-67
2022/07/09 12:51:22;;;;;;;;;;;;;;;;;;5035183;28;19936;-68
2022/07/09 12:53:48;;;;;;;;;;;;;;;;;;5035059;28;20000;-70
2022/07/09 12:56:15;;;;;;;;;;;;;;;;;;5034678;28;19925;-68
2022/07/09 12:58:41;;;;;;;;;;;;;;;;;;5035143;28;19925;-67
2022/07/09 13:01:09;;;;;;;;;;;;;;;;;;5034880;28;19991;-69
2022/07/09 13:03:36;;;;;;;;;;;;;;;;;;5034841;28;19932;-69
2022/07/09 13:06:02;;;;;;;;;;;;;;;;;;5035229;28;19925;-69
2022/07/09 13:08:29;;;;;;;;;;;;;;;;;;5035149;28;20444;-71
2022/07/09 13:10:56;;;;;;;;;;;;;;;;;;5034982;28;19925;-69
2022/07/09 13:13:22;;;;;;;;;;;;;;;;;;5034805;28;19929;-68
2022/07/09 13:15:51;;;;;;;;;;;;;;;;;;5035163;28;19929;-69
2022/07/09 13:18:19;;;;;;;;;;;;;;;;;;5035453;28;19944;-68
2022/07/09 13:20:46;;;;;;;;;;;;;;;;;;5035930;28;19983;-67
2022/07/09 13:23:12;;;;;;;;;;;;;;;;;;5036162;28;19929;-68
2022/07/09 13:25:39;;;;;;;;;;;;;;;;;;5035537;28;19929;-68
2022/07/09 13:28:06;;;;;;;;;;;;;;;;;;5034700;28;19932;-69
2022/07/09 13:30:33;;;;;;;;;;;;;;;;;;5035685;28;19936;-68
2022/07/09 13:33:00;;;;;;;;;;;;;;;;;;5035364;28;19933;-69
2022/07/09 13:35:28;;;;;;;;;;;;;;;;;;5033631;28;19933;-68
2022/07/09 13:37:54;;;;;;;;;;;;;;;;;;5035383;28;20259;-68
2022/07/09 13:40:21;;;;;;;;;;;;;;;;;;5035171;28;19925;-68
2022/07/09 13:42:48;;;;;;;;;;;;;;;;;;5034779;28;19925;-68
2022/07/09 13:45:14;;;;;;;;;;;;;;;;;;5034416;28;19925;-68
2022/07/09 13:47:41;;;;;;;;;;;;;;;;;;5034103;28;19971;-69
2022/07/09 13:50:08;;;;;;;;;;;;;;;;;;5034026;28;20408;-68
2022/07/09 13:52:36;;;;;;;;;;;;;;;;;;5033892;28;19979;-69
2022/07/09 13:55:03;;;;;;;;;;;;;;;;;;5034019;28;19936;-68
2022/07/09 13:57:30;;;;;;;;;;;;;;;;;;5034328;28;19932;-68
2022/07/09 13:59:56;;;;;;;;;;;;;;;;;;5034099;28;19979;-68
2022/07/09 14:02:23;;;;;;;;;;;;;;;;;;5033849;28;19929;-69
2022/07/09 14:04:49;;;;;;;;;;;;;;;;;;5033880;28;19938;-68
2022/07/09 14:07:16;;;;;;;;;;;;;;;;;;5033721;28;19944;-68
2022/07/09 14:09:44;;;;;;;;;;;;;;;;;;5033682;28;19991;-68
2022/07/09 14:12:11;;;;;;;;;;;;;;;;;;5033777;28;20397;-68
2022/07/09 14:14:37;;;;;;;;;;;;;;;;;;5033563;28;19964;-69
2022/07/09 14:17:05;;;;;;;;;;;;;;;;;;5033228;28;19925;-69
2022/07/09 14:19:31;;;;;;;;;;;;;;;;;;5033858;28;20055;-68
2022/07/09 14:22:00;;;;;;;;;;;;;;;;;;5014967;28;21857;-69
2022/07/09 14:24:26;;;;;;;;;;;;;;;;;;5034090;28;20024;-69
2022/07/09 14:26:54;;;;;;;;;;;;;;;;;;5033205;28;19936;-68
2022/07/09 14:29:21;;;;;;;;;;;;;;;;;;5033667;28;19959;-69
2022/07/09 14:31:48;;;;;;;;;;;;;;;;;;5033497;28;19925;-70
2022/07/09 14:34:14;;;;;;;;;;;;;;;;;;5033319;28;19926;-69
2022/07/09 14:36:41;;;;;;;;;;;;;;;;;;5033134;28;20003;-68
2022/07/09 14:39:09;;;;;;;;;;;;;;;;;;5033263;28;19925;-69
2022/07/09 14:41:35;;;;;;;;;;;;;;;;;;5033012;28;19925;-69
2022/07/09 14:44:04;;;;;;;;;;;;;;;;;;5033231;28;19979;-69
2022/07/09 14:46:31;;;;;;;;;;;;;;;;;;5032801;28;19975;-70
2022/07/09 14:48:58;;;;;;;;;;;;;;;;;;5033607;28;19925;-69
2022/07/09 14:51:25;;;;;;;;;;;;;;;;;;5032879;28;19925;-70
2022/07/09 14:53:51;;;;;;;;;;;;;;;;;;5032868;28;19925;-69
2022/07/09 14:56:18;;;;;;;;;;;;;;;;;;5032725;28;20004;-69
2022/07/09 14:58:45;;;;;;;;;;;;;;;;;;5033230;28;19925;-69
2022/07/09 15:01:13;;;;;;;;;;;;;;;;;;5032965;28;19929;-68
2022/07/09 15:03:40;;;;;;;;;;;;;;;;;;5032815;28;20374;-67
2022/07/09 15:06:07;;;;;;;;;;;;;;;;;;5032705;28;19925;-68
2022/07/09 15:08:34;;;;;;;;;;;;;;;;;;5032973;28;19928;-67
2022/07/09 15:11:00;;;;;;;;;;;;;;;;;;5032775;28;19932;-69
2022/07/09 15:13:27;;;;;;;;;;;;;;;;;;5032529;28;19925;-69
2022/07/09 15:15:53;;;;;;;;;;;;;;;;;;5032465;28;19925;-68
2022/07/09 15:18:21;;;;;;;;;;;;;;;;;;5032789;28;20296;-68
2022/07/09 15:20:48;;;;;;;;;;;;;;;;;;5032862;28;20309;-67
2022/07/09 15:23:15;;;;;;;;;;;;;;;;;;5032370;28;20403;-69
2022/07/09 15:25:42;;;;;;;;;;;;;;;;;;5032757;28;19925;-67
2022/07/09 15:28:12;;;;;;;;;;;;;;;;;;5032024;28;19925;-68
2022/07/09 15:30:39;;;;;;;;;;;;;;;;;;5032564;28;19956;-68
2022/07/09 15:33:05;;;;;;;;;;;;;;;;;;5032421;28;19932;-68
2022/07/09 15:35:33;;;;;;;;;;;;;;;;;;5032347;28;20009;-68
2022/07/09 15:38:00;;;;;;;;;;;;;;;;;;5032391;28;19929;-68
2022/07/09 15:40:27;;;;;;;;;;;;;;;;;;5034493;28;19963;-68
2022/07/09 15:42:53;;;;;;;;;;;;;;;;;;5032298;28;19991;-69
2022/07/09 15:45:21;;;;;;;;;;;;;;;;;;5032632;28;20302;-68
2022/07/09 15:47:47;;;;;;;;;;;;;;;;;;5032348;28;20414;-69
2022/07/09 15:50:14;;;;;;;;;;;;;;;;;;5032089;28;19929;-69
2022/07/09 15:52:42;;;;;;;;;;;;;;;;;;5032422;28;19925;-69
2022/07/09 15:55:10;;;;;;;;;;;;;;;;;;5032113;28;19940;-68
2022/07/09 15:57:37;;;;;;;;;;;;;;;;;;5032790;28;19930;-69
2022/07/09 16:00:04;;;;;;;;;;;;;;;;;;5036039;28;20349;-69
2022/07/09 16:02:31;;;;;;;;;;;;;;;;;;5035651;28;19932;-69
2022/07/09 16:04:57;;;;;;;;;;;;;;;;;;5035812;28;19979;-69
2022/07/09 16:07:24;;;;;;;;;;;;;;;;;;5035734;28;20374;-68
2022/07/09 16:09:52;;;;;;;;;;;;;;;;;;5035995;28;20455;-69
2022/07/09 16:15:02;;;;;;;;;;;;;;;;;;5036030;28;19932;-68
2022/07/09 16:17:29;;;;;;;;;;;;;;;;;;5035599;28;19932;-68
2022/07/09 16:19:56;;;;;;;;;;;;;;;;;;5035613;28;19945;-68
2022/07/09 16:22:22;;;;;;;;;;;;;;;;;;5035395;28;19949;-69
2022/07/09 16:24:49;;;;;;;;;;;;;;;;;;5035651;28;19932;-68
2022/07/09 16:27:17;;;;;;;;;;;;;;;;;;5035478;28;19925;-68
2022/07/09 16:29:43;;;;;;;;;;;;;;;;;;5035830;28;19952;-69
2022/07/09 16:32:10;;;;;;;;;;;;;;;;;;5035531;28;19925;-69
2022/07/09 16:34:37;;;;;;;;;;;;;;;;;;5035159;28;19939;-66
2022/07/09 16:37:03;;;;;;;;;;;;;;;;;;5035148;28;19936;-68
2022/07/09 16:39:30;;;;;;;;;;;;;;;;;;5035020;28;19925;-68
2022/07/09 16:41:57;;;;;;;;;;;;;;;;;;5035125;28;19979;-67
2022/07/09 16:44:25;;;;;;;;;;;;;;;;;;5035322;28;19925;-67
2022/07/09 16:46:51;;;;;;;;;;;;;;;;;;5034974;28;19925;-69
2022/07/09 16:49:18;;;;;;;;;;;;;;;;;;5035028;28;19925;-69